sensor_id;sensor_type;location;lat;lon;timestamp;P1;durP1;ratioP1;P2;durP2;ratioP2
49540;SDS011;35432;43.566;1.398;2023-02-26T00:01:00;9.85;;;4.18;;
49540;SDS011;35432;43.566;1.398;2023-02-26T00:03:26;8.63;;;4.07;;
49540;SDS011;35432;43.566;1.398;2023-02-26T00:05:53;10.07;;;4.47;;
49540;SDS011;35432;43.566;1.398;2023-02-26T00:08:18;10.07;;;4.10;;
49540;SDS011;35432;43.566;1.398;2023-02-26T00:10:43;8.90;;;3.97;;
49540;SDS011;35432;43.566;1.398;2023-02-26T00:13:09;11.00;;;4.43;;
49540;SDS011;35432;43.566;1.398;2023-02-26T00:15:35;9.85;;;4.75;;
49540;SDS011;35432;43.566;1.398;2023-02-26T00:18:03;12.00;;;4.13;;
49540;SDS011;35432;43.566;1.398;2023-02-26T00:20:32;8.20;;;3.77;;
49540;SDS011;35432;43.566;1.398;2023-02-26T00:22:58;8.85;;;4.38;;
49540;SDS011;35432;43.566;1.398;2023-02-26T00:25:27;9.90;;;4.50;;
49540;SDS011;35432;43.566;1.398;2023-02-26T00:27:53;11.43;;;4.93;;
49540;SDS011;35432;43.566;1.398;2023-02-26T00:30:19;13.97;;;5.17;;
49540;SDS011;35432;43.566;1.398;2023-02-26T00:32:51;12.57;;;5.25;;
49540;SDS011;35432;43.566;1.398;2023-02-26T00:35:17;12.27;;;5.60;;
49540;SDS011;35432;43.566;1.398;2023-02-26T00:37:52;10.70;;;4.78;;
49540;SDS011;35432;43.566;1.398;2023-02-26T00:40:33;11.50;;;5.03;;
49540;SDS011;35432;43.566;1.398;2023-02-26T00:42:59;11.38;;;5.50;;
49540;SDS011;35432;43.566;1.398;2023-02-26T00:45:26;12.30;;;5.07;;
49540;SDS011;35432;43.566;1.398;2023-02-26T00:47:59;10.15;;;4.78;;
49540;SDS011;35432;43.566;1.398;2023-02-26T00:50:59;13.03;;;5.13;;
49540;SDS011;35432;43.566;1.398;2023-02-26T00:53:46;11.65;;;5.22;;
49540;SDS011;35432;43.566;1.398;2023-02-26T00:56:13;11.20;;;5.38;;
49540;SDS011;35432;43.566;1.398;2023-02-26T00:58:38;11.70;;;5.03;;
49540;SDS011;35432;43.566;1.398;2023-02-26T01:01:04;12.80;;;4.95;;
49540;SDS011;35432;43.566;1.398;2023-02-26T01:03:30;11.97;;;5.20;;
49540;SDS011;35432;43.566;1.398;2023-02-26T01:05:56;11.13;;;4.97;;
49540;SDS011;35432;43.566;1.398;2023-02-26T01:08:30;12.20;;;4.97;;
49540;SDS011;35432;43.566;1.398;2023-02-26T01:11:03;13.80;;;5.72;;
49540;SDS011;35432;43.566;1.398;2023-02-26T01:13:29;12.43;;;4.82;;
49540;SDS011;35432;43.566;1.398;2023-02-26T01:15:58;11.90;;;4.90;;
49540;SDS011;35432;43.566;1.398;2023-02-26T01:18:37;9.60;;;4.47;;
49540;SDS011;35432;43.566;1.398;2023-02-26T01:21:09;11.63;;;4.88;;
49540;SDS011;35432;43.566;1.398;2023-02-26T01:23:43;15.43;;;5.00;;
49540;SDS011;35432;43.566;1.398;2023-02-26T01:26:18;11.10;;;5.25;;
49540;SDS011;35432;43.566;1.398;2023-02-26T01:28:48;10.38;;;4.93;;
49540;SDS011;35432;43.566;1.398;2023-02-26T01:31:16;11.65;;;5.60;;
49540;SDS011;35432;43.566;1.398;2023-02-26T01:33:58;11.30;;;5.00;;
49540;SDS011;35432;43.566;1.398;2023-02-26T01:36:55;13.67;;;5.70;;
49540;SDS011;35432;43.566;1.398;2023-02-26T01:44:55;17.80;;;6.95;;
49540;SDS011;35432;43.566;1.398;2023-02-26T01:50:13;16.00;;;6.77;;
49540;SDS011;35432;43.566;1.398;2023-02-26T01:55:21;17.65;;;7.63;;
49540;SDS011;35432;43.566;1.398;2023-02-26T01:57:51;19.77;;;7.82;;
49540;SDS011;35432;43.566;1.398;2023-02-26T02:00:20;18.58;;;7.75;;
49540;SDS011;35432;43.566;1.398;2023-02-26T02:02:45;18.43;;;7.50;;
49540;SDS011;35432;43.566;1.398;2023-02-26T02:05:23;16.85;;;8.23;;
49540;SDS011;35432;43.566;1.398;2023-02-26T02:07:53;20.30;;;7.30;;
49540;SDS011;35432;43.566;1.398;2023-02-26T02:10:20;18.75;;;7.50;;
49540;SDS011;35432;43.566;1.398;2023-02-26T02:21:08;19.48;;;7.97;;
49540;SDS011;35432;43.566;1.398;2023-02-26T02:23:44;18.50;;;8.30;;
49540;SDS011;35432;43.566;1.398;2023-02-26T02:26:25;18.38;;;8.10;;
49540;SDS011;35432;43.566;1.398;2023-02-26T02:29:48;17.00;;;7.78;;
49540;SDS011;35432;43.566;1.398;2023-02-26T02:32:15;19.23;;;8.50;;
49540;SDS011;35432;43.566;1.398;2023-02-26T02:40:19;15.93;;;7.20;;
49540;SDS011;35432;43.566;1.398;2023-02-26T02:42:58;19.85;;;7.82;;
49540;SDS011;35432;43.566;1.398;2023-02-26T02:45:34;20.53;;;8.37;;
49540;SDS011;35432;43.566;1.398;2023-02-26T02:48:28;16.88;;;7.03;;
49540;SDS011;35432;43.566;1.398;2023-02-26T02:50:58;14.98;;;6.80;;
49540;SDS011;35432;43.566;1.398;2023-02-26T02:55:58;16.00;;;6.38;;
49540;SDS011;35432;43.566;1.398;2023-02-26T02:58:31;16.93;;;6.20;;
49540;SDS011;35432;43.566;1.398;2023-02-26T03:01:04;15.05;;;6.20;;
49540;SDS011;35432;43.566;1.398;2023-02-26T03:03:45;16.80;;;6.97;;
49540;SDS011;35432;43.566;1.398;2023-02-26T03:06:25;15.65;;;6.03;;
49540;SDS011;35432;43.566;1.398;2023-02-26T03:08:50;15.60;;;6.33;;
49540;SDS011;35432;43.566;1.398;2023-02-26T03:11:17;12.52;;;5.85;;
49540;SDS011;35432;43.566;1.398;2023-02-26T03:13:42;15.17;;;6.00;;
49540;SDS011;35432;43.566;1.398;2023-02-26T03:21:30;14.80;;;5.90;;
49540;SDS011;35432;43.566;1.398;2023-02-26T03:27:02;13.38;;;5.47;;
49540;SDS011;35432;43.566;1.398;2023-02-26T03:29:38;11.65;;;5.10;;
49540;SDS011;35432;43.566;1.398;2023-02-26T03:32:23;16.85;;;5.43;;
49540;SDS011;35432;43.566;1.398;2023-02-26T03:35:13;13.93;;;5.10;;
49540;SDS011;35432;43.566;1.398;2023-02-26T03:37:48;13.57;;;5.73;;
49540;SDS011;35432;43.566;1.398;2023-02-26T03:40:26;14.15;;;5.50;;
49540;SDS011;35432;43.566;1.398;2023-02-26T03:43:01;13.88;;;5.43;;
49540;SDS011;35432;43.566;1.398;2023-02-26T03:45:31;13.57;;;5.80;;
49540;SDS011;35432;43.566;1.398;2023-02-26T03:47:59;17.15;;;5.75;;
49540;SDS011;35432;43.566;1.398;2023-02-26T03:50:34;14.40;;;5.37;;
49540;SDS011;35432;43.566;1.398;2023-02-26T03:53:04;10.93;;;5.00;;
49540;SDS011;35432;43.566;1.398;2023-02-26T03:55:35;13.65;;;5.25;;
49540;SDS011;35432;43.566;1.398;2023-02-26T03:58:08;11.73;;;4.68;;
49540;SDS011;35432;43.566;1.398;2023-02-26T04:00:34;10.10;;;4.17;;
49540;SDS011;35432;43.566;1.398;2023-02-26T04:03:46;12.55;;;5.03;;
49540;SDS011;35432;43.566;1.398;2023-02-26T04:05:59;12.57;;;4.32;;
49540;SDS011;35432;43.566;1.398;2023-02-26T04:08:27;11.30;;;4.37;;
49540;SDS011;35432;43.566;1.398;2023-02-26T04:10:54;11.30;;;4.53;;
49540;SDS011;35432;43.566;1.398;2023-02-26T04:13:22;11.02;;;4.60;;
49540;SDS011;35432;43.566;1.398;2023-02-26T04:15:48;11.18;;;4.53;;
49540;SDS011;35432;43.566;1.398;2023-02-26T04:18:14;11.30;;;3.97;;
49540;SDS011;35432;43.566;1.398;2023-02-26T04:20:39;10.53;;;3.77;;
49540;SDS011;35432;43.566;1.398;2023-02-26T04:23:05;12.35;;;4.13;;
49540;SDS011;35432;43.566;1.398;2023-02-26T04:25:30;10.77;;;4.47;;
49540;SDS011;35432;43.566;1.398;2023-02-26T04:27:56;11.77;;;4.57;;
49540;SDS011;35432;43.566;1.398;2023-02-26T04:30:21;10.97;;;4.00;;
49540;SDS011;35432;43.566;1.398;2023-02-26T04:32:46;12.05;;;4.10;;
49540;SDS011;35432;43.566;1.398;2023-02-26T04:35:12;9.73;;;3.63;;
49540;SDS011;35432;43.566;1.398;2023-02-26T04:37:37;11.00;;;3.50;;
49540;SDS011;35432;43.566;1.398;2023-02-26T04:40:03;8.35;;;3.70;;
49540;SDS011;35432;43.566;1.398;2023-02-26T04:42:29;10.85;;;3.95;;
49540;SDS011;35432;43.566;1.398;2023-02-26T04:44:55;11.63;;;3.70;;
49540;SDS011;35432;43.566;1.398;2023-02-26T04:47:20;11.40;;;3.93;;
49540;SDS011;35432;43.566;1.398;2023-02-26T04:49:46;9.70;;;3.80;;
49540;SDS011;35432;43.566;1.398;2023-02-26T04:52:11;8.40;;;3.63;;
49540;SDS011;35432;43.566;1.398;2023-02-26T04:54:37;9.50;;;3.78;;
49540;SDS011;35432;43.566;1.398;2023-02-26T04:57:02;11.87;;;3.13;;
49540;SDS011;35432;43.566;1.398;2023-02-26T04:59:28;7.57;;;3.15;;
49540;SDS011;35432;43.566;1.398;2023-02-26T05:01:53;11.97;;;3.27;;
49540;SDS011;35432;43.566;1.398;2023-02-26T05:04:19;8.50;;;3.10;;
49540;SDS011;35432;43.566;1.398;2023-02-26T05:06:44;9.33;;;3.50;;
49540;SDS011;35432;43.566;1.398;2023-02-26T05:09:10;9.25;;;3.20;;
49540;SDS011;35432;43.566;1.398;2023-02-26T05:11:35;9.03;;;3.63;;
49540;SDS011;35432;43.566;1.398;2023-02-26T05:14:01;8.55;;;3.10;;
49540;SDS011;35432;43.566;1.398;2023-02-26T05:16:26;9.13;;;3.27;;
49540;SDS011;35432;43.566;1.398;2023-02-26T05:18:52;12.37;;;3.47;;
49540;SDS011;35432;43.566;1.398;2023-02-26T05:21:17;7.87;;;3.27;;
49540;SDS011;35432;43.566;1.398;2023-02-26T05:23:42;9.17;;;3.20;;
49540;SDS011;35432;43.566;1.398;2023-02-26T05:26:08;9.10;;;3.40;;
49540;SDS011;35432;43.566;1.398;2023-02-26T05:28:33;10.43;;;3.50;;
49540;SDS011;35432;43.566;1.398;2023-02-26T05:31:00;9.27;;;3.47;;
49540;SDS011;35432;43.566;1.398;2023-02-26T05:33:26;8.20;;;3.10;;
49540;SDS011;35432;43.566;1.398;2023-02-26T05:35:51;8.80;;;3.33;;
49540;SDS011;35432;43.566;1.398;2023-02-26T05:38:17;11.80;;;3.10;;
49540;SDS011;35432;43.566;1.398;2023-02-26T05:40:43;11.47;;;3.03;;
49540;SDS011;35432;43.566;1.398;2023-02-26T05:43:08;8.40;;;3.13;;
49540;SDS011;35432;43.566;1.398;2023-02-26T05:45:34;11.27;;;3.87;;
49540;SDS011;35432;43.566;1.398;2023-02-26T05:47:59;7.43;;;2.80;;
49540;SDS011;35432;43.566;1.398;2023-02-26T05:50:25;10.43;;;2.70;;
49540;SDS011;35432;43.566;1.398;2023-02-26T05:52:51;9.73;;;2.87;;
49540;SDS011;35432;43.566;1.398;2023-02-26T05:55:16;7.63;;;2.97;;
49540;SDS011;35432;43.566;1.398;2023-02-26T05:57:42;9.77;;;3.23;;
49540;SDS011;35432;43.566;1.398;2023-02-26T06:00:08;11.85;;;3.20;;
49540;SDS011;35432;43.566;1.398;2023-02-26T06:02:34;10.57;;;2.97;;
49540;SDS011;35432;43.566;1.398;2023-02-26T06:04:59;7.87;;;2.77;;
49540;SDS011;35432;43.566;1.398;2023-02-26T06:07:25;7.97;;;2.53;;
49540;SDS011;35432;43.566;1.398;2023-02-26T06:09:50;9.80;;;2.80;;
49540;SDS011;35432;43.566;1.398;2023-02-26T06:12:16;8.00;;;2.60;;
49540;SDS011;35432;43.566;1.398;2023-02-26T06:14:41;9.23;;;2.90;;
49540;SDS011;35432;43.566;1.398;2023-02-26T06:17:06;8.83;;;2.37;;
49540;SDS011;35432;43.566;1.398;2023-02-26T06:19:32;10.63;;;2.87;;
49540;SDS011;35432;43.566;1.398;2023-02-26T06:21:58;9.40;;;2.83;;
49540;SDS011;35432;43.566;1.398;2023-02-26T06:24:24;10.60;;;2.90;;
49540;SDS011;35432;43.566;1.398;2023-02-26T06:26:49;6.63;;;2.47;;
49540;SDS011;35432;43.566;1.398;2023-02-26T06:29:15;5.90;;;2.10;;
49540;SDS011;35432;43.566;1.398;2023-02-26T06:31:42;9.23;;;2.78;;
49540;SDS011;35432;43.566;1.398;2023-02-26T06:34:08;12.50;;;2.70;;
49540;SDS011;35432;43.566;1.398;2023-02-26T06:36:34;10.63;;;2.55;;
49540;SDS011;35432;43.566;1.398;2023-02-26T06:38:59;7.53;;;2.10;;
49540;SDS011;35432;43.566;1.398;2023-02-26T06:41:24;7.30;;;2.60;;
49540;SDS011;35432;43.566;1.398;2023-02-26T06:43:50;11.37;;;3.30;;
49540;SDS011;35432;43.566;1.398;2023-02-26T06:46:15;8.67;;;2.83;;
49540;SDS011;35432;43.566;1.398;2023-02-26T06:48:41;6.78;;;2.42;;
49540;SDS011;35432;43.566;1.398;2023-02-26T06:51:06;8.37;;;2.30;;
49540;SDS011;35432;43.566;1.398;2023-02-26T06:53:31;9.27;;;3.10;;
49540;SDS011;35432;43.566;1.398;2023-02-26T06:55:57;9.73;;;2.40;;
49540;SDS011;35432;43.566;1.398;2023-02-26T06:58:22;12.63;;;2.70;;
49540;SDS011;35432;43.566;1.398;2023-02-26T07:00:48;7.28;;;2.35;;
49540;SDS011;35432;43.566;1.398;2023-02-26T07:03:14;7.43;;;2.77;;
49540;SDS011;35432;43.566;1.398;2023-02-26T07:05:41;7.70;;;2.00;;
49540;SDS011;35432;43.566;1.398;2023-02-26T07:08:08;11.30;;;2.70;;
49540;SDS011;35432;43.566;1.398;2023-02-26T07:10:33;12.90;;;2.50;;
49540;SDS011;35432;43.566;1.398;2023-02-26T07:13:00;8.40;;;2.30;;
49540;SDS011;35432;43.566;1.398;2023-02-26T07:15:26;13.65;;;2.47;;
49540;SDS011;35432;43.566;1.398;2023-02-26T07:17:52;6.30;;;2.03;;
49540;SDS011;35432;43.566;1.398;2023-02-26T07:20:18;8.20;;;2.23;;
49540;SDS011;35432;43.566;1.398;2023-02-26T07:22:43;8.80;;;2.20;;
49540;SDS011;35432;43.566;1.398;2023-02-26T07:25:10;8.32;;;2.17;;
49540;SDS011;35432;43.566;1.398;2023-02-26T07:27:36;7.50;;;1.88;;
49540;SDS011;35432;43.566;1.398;2023-02-26T07:30:03;6.77;;;1.80;;
49540;SDS011;35432;43.566;1.398;2023-02-26T07:32:30;6.18;;;1.80;;
49540;SDS011;35432;43.566;1.398;2023-02-26T07:34:56;9.27;;;2.27;;
49540;SDS011;35432;43.566;1.398;2023-02-26T07:37:21;7.68;;;1.70;;
49540;SDS011;35432;43.566;1.398;2023-02-26T07:39:47;9.17;;;1.80;;
49540;SDS011;35432;43.566;1.398;2023-02-26T07:42:12;13.03;;;2.27;;
49540;SDS011;35432;43.566;1.398;2023-02-26T07:44:38;10.18;;;2.85;;
49540;SDS011;35432;43.566;1.398;2023-02-26T07:47:03;9.33;;;1.77;;
49540;SDS011;35432;43.566;1.398;2023-02-26T07:49:29;9.20;;;2.30;;
49540;SDS011;35432;43.566;1.398;2023-02-26T07:51:56;9.50;;;2.08;;
49540;SDS011;35432;43.566;1.398;2023-02-26T07:54:22;8.50;;;2.25;;
49540;SDS011;35432;43.566;1.398;2023-02-26T07:56:47;8.17;;;1.97;;
49540;SDS011;35432;43.566;1.398;2023-02-26T07:59:13;9.10;;;2.00;;
49540;SDS011;35432;43.566;1.398;2023-02-26T08:01:38;8.27;;;2.03;;
49540;SDS011;35432;43.566;1.398;2023-02-26T08:04:03;8.00;;;1.97;;
49540;SDS011;35432;43.566;1.398;2023-02-26T08:06:29;8.30;;;2.00;;
49540;SDS011;35432;43.566;1.398;2023-02-26T08:08:55;5.50;;;1.70;;
49540;SDS011;35432;43.566;1.398;2023-02-26T08:11:20;8.75;;;2.30;;
49540;SDS011;35432;43.566;1.398;2023-02-26T08:13:46;5.30;;;1.80;;
49540;SDS011;35432;43.566;1.398;2023-02-26T08:16:11;7.53;;;2.60;;
49540;SDS011;35432;43.566;1.398;2023-02-26T08:18:37;7.10;;;1.80;;
49540;SDS011;35432;43.566;1.398;2023-02-26T08:21:02;8.27;;;2.37;;
49540;SDS011;35432;43.566;1.398;2023-02-26T08:23:28;11.43;;;2.17;;
49540;SDS011;35432;43.566;1.398;2023-02-26T08:26:00;6.95;;;1.98;;
49540;SDS011;35432;43.566;1.398;2023-02-26T08:28:27;7.63;;;2.05;;
49540;SDS011;35432;43.566;1.398;2023-02-26T08:30:53;8.63;;;2.00;;
49540;SDS011;35432;43.566;1.398;2023-02-26T08:33:18;8.17;;;1.93;;
49540;SDS011;35432;43.566;1.398;2023-02-26T08:35:44;8.27;;;2.00;;
49540;SDS011;35432;43.566;1.398;2023-02-26T08:38:09;9.90;;;2.07;;
49540;SDS011;35432;43.566;1.398;2023-02-26T08:40:35;9.77;;;1.87;;
49540;SDS011;35432;43.566;1.398;2023-02-26T08:43:00;5.30;;;1.85;;
49540;SDS011;35432;43.566;1.398;2023-02-26T08:45:28;6.87;;;1.80;;
49540;SDS011;35432;43.566;1.398;2023-02-26T08:47:53;6.95;;;1.88;;
49540;SDS011;35432;43.566;1.398;2023-02-26T08:50:19;9.38;;;2.10;;
49540;SDS011;35432;43.566;1.398;2023-02-26T08:52:45;6.17;;;1.90;;
49540;SDS011;35432;43.566;1.398;2023-02-26T08:55:11;6.70;;;1.80;;
49540;SDS011;35432;43.566;1.398;2023-02-26T08:57:36;7.90;;;2.47;;
49540;SDS011;35432;43.566;1.398;2023-02-26T09:00:03;7.57;;;2.30;;
49540;SDS011;35432;43.566;1.398;2023-02-26T09:02:30;7.22;;;2.25;;
49540;SDS011;35432;43.566;1.398;2023-02-26T09:04:55;7.67;;;2.07;;
49540;SDS011;35432;43.566;1.398;2023-02-26T09:07:21;6.97;;;2.10;;
49540;SDS011;35432;43.566;1.398;2023-02-26T09:09:46;7.87;;;2.20;;
49540;SDS011;35432;43.566;1.398;2023-02-26T09:12:12;7.00;;;2.40;;
49540;SDS011;35432;43.566;1.398;2023-02-26T09:14:37;7.67;;;2.40;;
49540;SDS011;35432;43.566;1.398;2023-02-26T09:17:03;8.87;;;2.40;;
49540;SDS011;35432;43.566;1.398;2023-02-26T09:19:28;8.63;;;2.33;;
49540;SDS011;35432;43.566;1.398;2023-02-26T09:21:53;9.17;;;2.50;;
49540;SDS011;35432;43.566;1.398;2023-02-26T09:24:19;8.98;;;2.45;;
49540;SDS011;35432;43.566;1.398;2023-02-26T09:26:45;7.17;;;2.20;;
49540;SDS011;35432;43.566;1.398;2023-02-26T09:29:10;8.87;;;2.70;;
49540;SDS011;35432;43.566;1.398;2023-02-26T09:31:37;7.03;;;2.50;;
49540;SDS011;35432;43.566;1.398;2023-02-26T09:34:02;7.57;;;2.50;;
49540;SDS011;35432;43.566;1.398;2023-02-26T09:36:28;7.00;;;2.47;;
49540;SDS011;35432;43.566;1.398;2023-02-26T09:38:55;7.35;;;2.50;;
49540;SDS011;35432;43.566;1.398;2023-02-26T09:41:21;11.40;;;3.10;;
49540;SDS011;35432;43.566;1.398;2023-02-26T09:54:59;8.40;;;2.97;;
49540;SDS011;35432;43.566;1.398;2023-02-26T09:57:33;6.70;;;2.83;;
49540;SDS011;35432;43.566;1.398;2023-02-26T10:00:03;10.43;;;3.53;;
49540;SDS011;35432;43.566;1.398;2023-02-26T10:08:13;7.87;;;3.10;;
49540;SDS011;35432;43.566;1.398;2023-02-26T10:16:00;7.13;;;3.13;;
49540;SDS011;35432;43.566;1.398;2023-02-26T10:18:33;8.20;;;3.38;;
49540;SDS011;35432;43.566;1.398;2023-02-26T10:23:41;10.65;;;3.47;;
49540;SDS011;35432;43.566;1.398;2023-02-26T10:26:18;7.22;;;3.42;;
49540;SDS011;35432;43.566;1.398;2023-02-26T10:34:07;10.53;;;3.83;;
49540;SDS011;35432;43.566;1.398;2023-02-26T10:36:39;11.35;;;3.90;;
49540;SDS011;35432;43.566;1.398;2023-02-26T10:41:50;10.40;;;3.90;;
49540;SDS011;35432;43.566;1.398;2023-02-26T10:47:39;8.10;;;4.20;;
49540;SDS011;35432;43.566;1.398;2023-02-26T10:49:55;9.18;;;4.10;;
49540;SDS011;35432;43.566;1.398;2023-02-26T10:52:26;8.50;;;4.32;;
49540;SDS011;35432;43.566;1.398;2023-02-26T10:57:29;6.70;;;3.90;;
49540;SDS011;35432;43.566;1.398;2023-02-26T10:59:59;9.30;;;3.90;;
49540;SDS011;35432;43.566;1.398;2023-02-26T11:02:32;9.63;;;4.05;;
49540;SDS011;35432;43.566;1.398;2023-02-26T11:05:12;10.73;;;4.57;;
49540;SDS011;35432;43.566;1.398;2023-02-26T11:07:41;9.65;;;4.32;;
49540;SDS011;35432;43.566;1.398;2023-02-26T11:10:16;9.60;;;4.10;;
49540;SDS011;35432;43.566;1.398;2023-02-26T11:12:46;9.83;;;4.10;;
49540;SDS011;35432;43.566;1.398;2023-02-26T11:15:16;9.05;;;3.60;;
49540;SDS011;35432;43.566;1.398;2023-02-26T11:17:46;9.93;;;4.20;;
49540;SDS011;35432;43.566;1.398;2023-02-26T11:20:17;10.57;;;4.45;;
49540;SDS011;35432;43.566;1.398;2023-02-26T11:22:51;9.80;;;4.18;;
49540;SDS011;35432;43.566;1.398;2023-02-26T11:25:22;10.43;;;4.37;;
49540;SDS011;35432;43.566;1.398;2023-02-26T11:27:51;8.70;;;3.85;;
49540;SDS011;35432;43.566;1.398;2023-02-26T11:30:24;11.75;;;3.83;;
49540;SDS011;35432;43.566;1.398;2023-02-26T11:32:52;8.60;;;3.72;;
49540;SDS011;35432;43.566;1.398;2023-02-26T11:35:23;9.20;;;4.32;;
49540;SDS011;35432;43.566;1.398;2023-02-26T11:37:55;7.67;;;3.30;;
49540;SDS011;35432;43.566;1.398;2023-02-26T11:40:37;10.70;;;4.35;;
49540;SDS011;35432;43.566;1.398;2023-02-26T11:43:07;9.10;;;3.28;;
49540;SDS011;35432;43.566;1.398;2023-02-26T11:45:38;10.32;;;3.50;;
49540;SDS011;35432;43.566;1.398;2023-02-26T11:48:09;8.93;;;3.40;;
49540;SDS011;35432;43.566;1.398;2023-02-26T11:50:45;8.80;;;3.57;;
49540;SDS011;35432;43.566;1.398;2023-02-26T11:53:19;10.07;;;3.80;;
49540;SDS011;35432;43.566;1.398;2023-02-26T11:55:58;10.45;;;4.00;;
49540;SDS011;35432;43.566;1.398;2023-02-26T11:58:27;10.40;;;3.53;;
49540;SDS011;35432;43.566;1.398;2023-02-26T12:00:56;9.55;;;3.33;;
49540;SDS011;35432;43.566;1.398;2023-02-26T12:03:25;10.30;;;3.77;;
49540;SDS011;35432;43.566;1.398;2023-02-26T12:05:56;10.57;;;3.40;;
49540;SDS011;35432;43.566;1.398;2023-02-26T12:19:59;11.10;;;4.30;;
49540;SDS011;35432;43.566;1.398;2023-02-26T12:25:33;11.05;;;4.35;;
49540;SDS011;35432;43.566;1.398;2023-02-26T12:52:49;9.43;;;3.45;;
49540;SDS011;35432;43.566;1.398;2023-02-26T12:55:21;9.43;;;3.80;;
49540;SDS011;35432;43.566;1.398;2023-02-26T13:00:53;8.50;;;3.08;;
49540;SDS011;35432;43.566;1.398;2023-02-26T13:03:40;8.90;;;3.80;;
49540;SDS011;35432;43.566;1.398;2023-02-26T13:12:13;8.03;;;3.50;;
49540;SDS011;35432;43.566;1.398;2023-02-26T13:17:43;8.80;;;3.50;;
49540;SDS011;35432;43.566;1.398;2023-02-26T13:20:23;9.07;;;3.60;;
49540;SDS011;35432;43.566;1.398;2023-02-26T13:25:42;9.47;;;3.60;;
49540;SDS011;35432;43.566;1.398;2023-02-26T13:30:55;9.55;;;3.22;;
49540;SDS011;35432;43.566;1.398;2023-02-26T13:33:25;6.63;;;3.30;;
49540;SDS011;35432;43.566;1.398;2023-02-26T13:35:53;9.48;;;3.75;;
49540;SDS011;35432;43.566;1.398;2023-02-26T13:41:37;10.10;;;3.88;;
49540;SDS011;35432;43.566;1.398;2023-02-26T13:53:00;7.90;;;3.23;;
49540;SDS011;35432;43.566;1.398;2023-02-26T13:58:53;8.25;;;3.65;;
49540;SDS011;35432;43.566;1.398;2023-02-26T14:01:27;7.90;;;3.53;;
49540;SDS011;35432;43.566;1.398;2023-02-26T14:22:42;7.10;;;2.90;;
49540;SDS011;35432;43.566;1.398;2023-02-26T14:25:28;6.33;;;2.53;;
49540;SDS011;35432;43.566;1.398;2023-02-26T14:31:11;4.30;;;1.10;;
49540;SDS011;35432;43.566;1.398;2023-02-26T14:33:56;4.60;;;1.00;;
49540;SDS011;35432;43.566;1.398;2023-02-26T14:36:52;4.25;;;0.98;;
49540;SDS011;35432;43.566;1.398;2023-02-26T14:39:29;3.37;;;0.80;;
49540;SDS011;35432;43.566;1.398;2023-02-26T14:42:03;4.80;;;1.42;;
49540;SDS011;35432;43.566;1.398;2023-02-26T14:44:36;5.20;;;1.25;;
49540;SDS011;35432;43.566;1.398;2023-02-26T14:47:05;5.30;;;1.50;;
49540;SDS011;35432;43.566;1.398;2023-02-26T14:52:08;7.13;;;1.40;;
49540;SDS011;35432;43.566;1.398;2023-02-26T15:00:37;5.22;;;1.30;;
49540;SDS011;35432;43.566;1.398;2023-02-26T15:22:47;3.83;;;0.80;;
49540;SDS011;35432;43.566;1.398;2023-02-26T15:25:40;3.88;;;0.80;;
49540;SDS011;35432;43.566;1.398;2023-02-26T15:28:12;4.03;;;0.90;;
49540;SDS011;35432;43.566;1.398;2023-02-26T15:30:45;4.13;;;0.95;;
49540;SDS011;35432;43.566;1.398;2023-02-26T15:33:22;3.00;;;0.90;;
49540;SDS011;35432;43.566;1.398;2023-02-26T15:35:49;4.57;;;0.98;;
49540;SDS011;35432;43.566;1.398;2023-02-26T15:38:16;3.55;;;0.80;;
49540;SDS011;35432;43.566;1.398;2023-02-26T15:40:41;4.25;;;0.80;;
49540;SDS011;35432;43.566;1.398;2023-02-26T15:43:08;4.50;;;1.17;;
49540;SDS011;35432;43.566;1.398;2023-02-26T15:45:39;4.22;;;1.00;;
49540;SDS011;35432;43.566;1.398;2023-02-26T15:48:14;4.43;;;1.20;;
49540;SDS011;35432;43.566;1.398;2023-02-26T15:50:45;4.55;;;1.05;;
49540;SDS011;35432;43.566;1.398;2023-02-26T15:53:56;4.55;;;1.10;;
49540;SDS011;35432;43.566;1.398;2023-02-26T15:56:04;8.30;;;1.00;;
49540;SDS011;35432;43.566;1.398;2023-02-26T15:58:34;5.82;;;1.10;;
49540;SDS011;35432;43.566;1.398;2023-02-26T16:01:04;8.77;;;1.33;;
49540;SDS011;35432;43.566;1.398;2023-02-26T16:03:31;6.05;;;1.42;;
49540;SDS011;35432;43.566;1.398;2023-02-26T16:05:58;4.70;;;0.82;;
49540;SDS011;35432;43.566;1.398;2023-02-26T16:08:24;5.53;;;1.00;;
49540;SDS011;35432;43.566;1.398;2023-02-26T16:10:50;7.68;;;1.70;;
49540;SDS011;35432;43.566;1.398;2023-02-26T16:13:21;5.27;;;1.27;;
49540;SDS011;35432;43.566;1.398;2023-02-26T16:15:51;4.53;;;0.80;;
49540;SDS011;35432;43.566;1.398;2023-02-26T16:18:17;4.30;;;0.90;;
49540;SDS011;35432;43.566;1.398;2023-02-26T16:20:49;4.63;;;1.33;;
49540;SDS011;35432;43.566;1.398;2023-02-26T16:23:20;5.28;;;1.23;;
49540;SDS011;35432;43.566;1.398;2023-02-26T16:26:03;6.95;;;1.48;;
49540;SDS011;35432;43.566;1.398;2023-02-26T16:28:31;12.77;;;1.05;;
49540;SDS011;35432;43.566;1.398;2023-02-26T16:31:02;4.13;;;1.00;;
49540;SDS011;35432;43.566;1.398;2023-02-26T16:33:31;5.23;;;1.07;;
49540;SDS011;35432;43.566;1.398;2023-02-26T16:36:08;4.80;;;1.20;;
49540;SDS011;35432;43.566;1.398;2023-02-26T16:38:48;5.07;;;1.00;;
49540;SDS011;35432;43.566;1.398;2023-02-26T16:41:21;4.93;;;1.20;;
49540;SDS011;35432;43.566;1.398;2023-02-26T16:43:52;4.22;;;1.00;;
49540;SDS011;35432;43.566;1.398;2023-02-26T16:51:28;6.93;;;0.80;;
49540;SDS011;35432;43.566;1.398;2023-02-26T16:53:57;4.57;;;1.10;;
49540;SDS011;35432;43.566;1.398;2023-02-26T16:56:27;4.72;;;1.10;;
49540;SDS011;35432;43.566;1.398;2023-02-26T17:02:11;4.72;;;1.00;;
49540;SDS011;35432;43.566;1.398;2023-02-26T17:04:42;8.53;;;1.70;;
49540;SDS011;35432;43.566;1.398;2023-02-26T17:09:58;4.40;;;1.15;;
49540;SDS011;35432;43.566;1.398;2023-02-26T17:15:11;4.20;;;1.02;;
49540;SDS011;35432;43.566;1.398;2023-02-26T17:17:41;4.67;;;1.23;;
49540;SDS011;35432;43.566;1.398;2023-02-26T17:20:07;4.38;;;1.00;;
49540;SDS011;35432;43.566;1.398;2023-02-26T17:22:36;8.75;;;1.63;;
49540;SDS011;35432;43.566;1.398;2023-02-26T17:25:13;5.22;;;1.15;;
49540;SDS011;35432;43.566;1.398;2023-02-26T17:27:40;5.45;;;1.30;;
49540;SDS011;35432;43.566;1.398;2023-02-26T17:30:08;4.67;;;1.30;;
49540;SDS011;35432;43.566;1.398;2023-02-26T17:32:37;5.43;;;1.25;;
49540;SDS011;35432;43.566;1.398;2023-02-26T17:35:03;5.97;;;1.40;;
49540;SDS011;35432;43.566;1.398;2023-02-26T17:37:31;4.80;;;1.30;;
49540;SDS011;35432;43.566;1.398;2023-02-26T17:42:47;6.40;;;1.40;;
49540;SDS011;35432;43.566;1.398;2023-02-26T17:45:13;5.97;;;1.30;;
49540;SDS011;35432;43.566;1.398;2023-02-26T17:47:40;5.97;;;1.50;;
49540;SDS011;35432;43.566;1.398;2023-02-26T17:50:10;7.28;;;1.70;;
49540;SDS011;35432;43.566;1.398;2023-02-26T17:53:00;7.18;;;1.77;;
49540;SDS011;35432;43.566;1.398;2023-02-26T17:55:27;5.72;;;1.50;;
49540;SDS011;35432;43.566;1.398;2023-02-26T17:57:52;7.30;;;1.70;;
49540;SDS011;35432;43.566;1.398;2023-02-26T18:00:20;6.57;;;1.60;;
49540;SDS011;35432;43.566;1.398;2023-02-26T18:02:54;5.53;;;1.47;;
49540;SDS011;35432;43.566;1.398;2023-02-26T18:05:20;5.82;;;1.48;;
49540;SDS011;35432;43.566;1.398;2023-02-26T18:07:46;5.30;;;1.33;;
49540;SDS011;35432;43.566;1.398;2023-02-26T18:10:17;5.03;;;1.30;;
49540;SDS011;35432;43.566;1.398;2023-02-26T18:12:45;10.27;;;2.33;;
49540;SDS011;35432;43.566;1.398;2023-02-26T18:15:11;7.03;;;1.83;;
49540;SDS011;35432;43.566;1.398;2023-02-26T18:17:37;8.13;;;2.20;;
49540;SDS011;35432;43.566;1.398;2023-02-26T18:20:03;7.25;;;1.77;;
49540;SDS011;35432;43.566;1.398;2023-02-26T18:22:33;14.35;;;3.35;;
49540;SDS011;35432;43.566;1.398;2023-02-26T18:24:59;10.77;;;1.87;;
49540;SDS011;35432;43.566;1.398;2023-02-26T18:27:25;8.95;;;1.95;;
49540;SDS011;35432;43.566;1.398;2023-02-26T18:29:51;5.85;;;1.05;;